createdAt,value
2023-01-13T00:05:01.931Z,-4.97
2023-01-13T00:10:07.410Z,-4.54
2023-01-13T00:15:11.298Z,-4.36
2023-01-13T00:20:14.250Z,-4.25
2023-01-13T00:25:17.286Z,-4.57
2023-01-13T00:30:20.260Z,-4.64
2023-01-13T00:35:23.395Z,-4.39
2023-01-13T00:40:26.428Z,-4.51
2023-01-13T00:45:29.396Z,-4.54
2023-01-13T00:50:32.911Z,-4.48
2023-01-13T00:55:35.738Z,-4.20
2023-01-13T01:00:38.609Z,-4.37
2023-01-13T01:05:47.535Z,-3.80
2023-01-13T01:21:29.590Z,-3.58
2023-01-13T01:26:33.227Z,-4.20
2023-01-13T01:31:35.939Z,-4.22
2023-01-13T01:36:40.287Z,-3.54
2023-01-13T01:42:02.905Z,-3.22
2023-01-13T01:47:05.990Z,-3.78
2023-01-13T01:52:15.275Z,-3.83
2023-01-13T01:57:21.452Z,-3.83
2023-01-13T02:02:24.645Z,-3.76
2023-01-13T02:07:31.161Z,-3.47
2023-01-13T02:12:36.384Z,-3.40
2023-01-13T02:17:54.880Z,-3.29
2023-01-13T02:23:40.739Z,-4.04
2023-01-13T02:29:31.839Z,-3.58
2023-01-13T02:34:42.883Z,-3.82
2023-01-13T02:40:02.877Z,-3.72
2023-01-13T02:45:15.397Z,-3.45
2023-01-13T02:50:21.453Z,-3.71
2023-01-13T02:55:47.103Z,-3.54
2023-01-13T03:00:50.307Z,-4.33
2023-01-13T03:06:09.427Z,-3.31
2023-01-13T03:11:14.918Z,-3.80
2023-01-13T03:16:55.052Z,-2.66
2023-01-13T03:22:09.349Z,-2.92
2023-01-13T03:27:34.034Z,-3.65
2023-01-13T03:32:42.659Z,-3.20
2023-01-13T03:37:51.485Z,-3.10
2023-01-13T03:43:19.575Z,-3.26
2023-01-13T03:48:25.889Z,-3.24
2023-01-13T03:53:36.762Z,-3.37
2023-01-13T03:58:47.985Z,-3.23
2023-01-13T04:04:01.847Z,-3.56
2023-01-13T04:09:33.861Z,-3.52
2023-01-13T04:14:37.632Z,-3.19
2023-01-13T04:19:40.502Z,-3.55
2023-01-13T04:24:43.434Z,-3.29
2023-01-13T04:29:46.300Z,-2.75
2023-01-13T04:34:49.335Z,-3.48
2023-01-13T04:39:52.315Z,-3.55
2023-01-13T04:44:55.179Z,-3.76
2023-01-13T04:49:58.121Z,-3.66
2023-01-13T04:55:01.012Z,-3.72
2023-01-13T05:00:06.796Z,-3.39
2023-01-13T05:05:10.819Z,-3.62
2023-01-13T05:10:13.757Z,-3.61
2023-01-13T05:15:35.578Z,-3.44
2023-01-13T05:20:38.800Z,-3.78
2023-01-13T05:25:44.564Z,-3.17
2023-01-13T05:30:49.720Z,-3.51
2023-01-13T05:35:53.333Z,-3.38
2023-01-13T05:49:06.688Z,-2.89
2023-01-13T05:54:09.888Z,-3.31
2023-01-13T05:59:12.646Z,-3.30
2023-01-13T06:04:16.897Z,-3.26
2023-01-13T06:09:21.354Z,-3.60
2023-01-13T06:14:24.410Z,-3.52
2023-01-13T06:19:27.920Z,-2.78
2023-01-13T06:24:31.133Z,-3.11
2023-01-13T06:29:34.592Z,-3.15
2023-01-13T06:34:40.108Z,-2.49
2023-01-13T06:39:43.381Z,-2.63
2023-01-13T06:44:46.535Z,-3.28
2023-01-13T06:49:49.768Z,-2.94
2023-01-13T06:54:52.604Z,-2.98
2023-01-13T06:59:55.408Z,-2.27
2023-01-13T07:05:00.494Z,-2.68
2023-01-13T07:10:22.832Z,-2.42
2023-01-13T07:15:27.575Z,-2.12
2023-01-13T07:20:31.151Z,-1.65
2023-01-13T07:25:34.332Z,-1.72
2023-01-13T07:30:40.815Z,-1.76
2023-01-13T07:35:44.075Z,-1.98
2023-01-13T07:40:47.139Z,-2.06
2023-01-13T07:45:50.351Z,0.65
2023-01-13T07:50:53.949Z,0.93
2023-01-13T07:56:05.462Z,0.62
2023-01-13T08:01:11.366Z,0.40
2023-01-13T08:06:20.191Z,0.67
2023-01-13T08:11:23.762Z,1.02
2023-01-13T08:16:26.994Z,1.35
2023-01-13T08:21:30.088Z,0.55
2023-01-13T08:26:33.047Z,0.49
2023-01-13T08:31:35.787Z,0.58
2023-01-13T08:36:38.637Z,0.43
2023-01-13T08:41:56.392Z,0.16
2023-01-13T08:47:00.058Z,0.25
2023-01-13T08:52:05.096Z,0.11
2023-01-13T08:57:08.598Z,0.79
2023-01-13T09:02:18.863Z,0.30
2023-01-13T09:07:22.182Z,0.06
2023-01-13T09:12:43.821Z,0.18
2023-01-13T09:17:48.211Z,-0.50
2023-01-13T09:22:51.037Z,-0.33
2023-01-13T09:27:53.732Z,-0.05
2023-01-13T09:33:19.291Z,-0.37
2023-01-13T09:38:22.160Z,-0.05
2023-01-13T09:43:53.002Z,-0.23
2023-01-13T09:48:58.346Z,-0.15
2023-01-13T09:54:38.373Z,-0.03
2023-01-13T09:59:41.812Z,0.21
2023-01-13T10:04:45.895Z,0.20
2023-01-13T10:09:53.229Z,-0.07
2023-01-13T10:14:56.666Z,-0.57
2023-01-13T10:20:23.077Z,-0.01
2023-01-13T10:25:36.962Z,0.43
2023-01-13T10:30:45.743Z,0.03
2023-01-13T10:36:13.432Z,0.05
2023-01-13T10:41:18.843Z,0.18
2023-01-13T10:46:21.908Z,0.17
2023-01-13T10:51:39.796Z,0.49
2023-01-13T10:56:45.304Z,0.59
2023-01-13T11:02:24.200Z,0.18
2023-01-13T11:07:31.245Z,0.15
2023-01-13T11:12:41.173Z,0.37
2023-01-13T11:17:48.078Z,0.68
2023-01-13T11:22:58.244Z,0.35
2023-01-13T11:28:19.064Z,0.61
2023-01-13T11:33:31.294Z,0.22
2023-01-13T11:38:44.682Z,0.05
2023-01-13T11:43:55.155Z,0.98
2023-01-13T11:48:58.136Z,0.50
2023-01-13T11:54:24.943Z,0.47
2023-01-13T11:59:43.074Z,0.73
2023-01-13T12:04:57.725Z,1.28
2023-01-13T12:10:17.690Z,1.23
2023-01-13T12:15:46.689Z,1.62
2023-01-13T12:21:01.303Z,2.02
2023-01-13T12:26:11.314Z,1.17
2023-01-13T12:31:14.554Z,1.38
2023-01-13T12:36:45.931Z,1.85
2023-01-13T12:42:20.833Z,1.39
2023-01-13T12:47:45.818Z,1.62
2023-01-13T12:52:50.023Z,1.32
2023-01-13T12:58:03.285Z,0.50
2023-01-13T13:03:16.655Z,0.19
2023-01-13T13:08:35.409Z,0.21
2023-01-13T13:13:47.919Z,-0.01
2023-01-13T13:18:51.575Z,-0.22
2023-01-13T13:23:56.047Z,-0.67
2023-01-13T13:29:38.026Z,-0.88
2023-01-13T13:34:58.916Z,-0.77
2023-01-13T13:40:37.702Z,-0.42
2023-01-13T13:46:10.297Z,-1.03
2023-01-13T13:51:49.659Z,-0.19
2023-01-13T13:56:53.226Z,-0.36
2023-01-13T14:02:04.149Z,-0.40
2023-01-13T14:07:22.629Z,-0.90
2023-01-13T14:12:28.404Z,-1.06
2023-01-13T14:17:31.685Z,-1.06
2023-01-13T14:22:34.877Z,-1.37
2023-01-13T14:27:43.626Z,-1.72
2023-01-13T14:32:47.592Z,-1.62
2023-01-13T14:37:54.613Z,-1.99
2023-01-13T14:43:02.424Z,-1.89
2023-01-13T14:48:09.230Z,-2.06
2023-01-13T14:53:47.251Z,-1.81
2023-01-13T14:58:50.394Z,-1.94
2023-01-13T15:03:53.382Z,-2.21
2023-01-13T15:08:56.619Z,-2.21
2023-01-13T15:14:01.777Z,-2.34
2023-01-13T15:19:04.786Z,-2.25
2023-01-13T15:24:07.825Z,-2.34
2023-01-13T15:29:17.389Z,-2.22
2023-01-13T15:34:20.227Z,-2.48
2023-01-13T15:39:23.000Z,-2.96
2023-01-13T15:44:44.181Z,-2.58
2023-01-13T15:49:47.517Z,-2.24
2023-01-13T15:54:51.520Z,-2.16
2023-01-13T15:59:58.056Z,-2.12
2023-01-13T16:05:01.036Z,-2.20
2023-01-13T16:10:15.301Z,-2.20
2023-01-13T16:15:22.635Z,-2.71
2023-01-13T16:20:26.164Z,-2.95
2023-01-13T16:25:29.159Z,-3.07
2023-01-13T16:30:37.505Z,-2.99
2023-01-13T16:36:09.969Z,-2.87
2023-01-13T16:41:03.202Z,-2.75
2023-01-13T16:46:29.146Z,-2.63
2023-01-13T16:51:33.977Z,-2.66
2023-01-13T16:56:37.448Z,-3.07
2023-01-13T17:01:42.491Z,-3.13
2023-01-13T17:07:03.480Z,-2.90
2023-01-13T17:12:06.513Z,-3.12
2023-01-13T17:17:22.175Z,-2.83
2023-01-13T17:22:25.233Z,-2.95
2023-01-13T17:27:28.113Z,-3.18
2023-01-13T17:32:31.015Z,-3.03
2023-01-13T17:37:34.692Z,-3.26
2023-01-13T17:42:37.938Z,-2.85
2023-01-13T17:47:40.835Z,-3.11
2023-01-13T17:52:43.829Z,-3.05
2023-01-13T17:57:46.677Z,-3.10
2023-01-13T18:02:49.599Z,-2.67
2023-01-13T18:07:52.484Z,-2.63
2023-01-13T18:12:56.534Z,-2.36
2023-01-13T18:17:59.478Z,-2.51
2023-01-13T18:23:21.374Z,-2.89
2023-01-13T18:28:24.156Z,-3.04
2023-01-13T18:33:26.922Z,-2.89
2023-01-13T18:38:29.847Z,-2.66
2023-01-13T18:43:34.074Z,-2.85
2023-01-13T18:48:37.010Z,-2.90
2023-01-13T18:53:39.944Z,-2.82
2023-01-13T18:58:51.731Z,-2.80
2023-01-13T19:04:03.641Z,-2.84
2023-01-13T19:09:11.400Z,-3.22
2023-01-13T19:14:34.362Z,-3.02
2023-01-13T19:19:45.368Z,-2.84
2023-01-13T19:24:48.223Z,-3.19
2023-01-13T19:29:52.869Z,-3.49
2023-01-13T19:34:59.510Z,-3.12
2023-01-13T19:40:04.850Z,-3.53
2023-01-13T19:45:33.169Z,-2.95
2023-01-13T19:50:40.191Z,-2.75
2023-01-13T19:55:48.741Z,-2.54
2023-01-13T20:00:52.737Z,-2.70
2023-01-13T20:05:55.805Z,-1.83
2023-01-13T20:11:19.040Z,-1.84
2023-01-13T20:16:21.981Z,-1.97
2023-01-13T20:21:24.977Z,-1.58
2023-01-13T20:26:27.852Z,-1.48
2023-01-13T20:31:30.695Z,-1.49
2023-01-13T20:36:37.564Z,-1.49
2023-01-13T20:41:58.653Z,-1.48
2023-01-13T20:47:03.032Z,-0.85
2023-01-13T20:52:09.890Z,-0.91
2023-01-13T20:57:13.193Z,-0.83
2023-01-13T21:02:17.577Z,-0.41
2023-01-13T21:07:20.445Z,-1.21
2023-01-13T21:12:41.523Z,-0.95
2023-01-13T21:18:04.075Z,-0.05
2023-01-13T21:23:08.315Z,-0.03
2023-01-13T21:28:13.706Z,-0.76
2023-01-13T21:33:16.562Z,-0.53
2023-01-13T21:38:19.678Z,-0.49
2023-01-13T21:43:41.151Z,0.14
2023-01-13T21:48:43.929Z,-0.15
2023-01-13T21:53:46.772Z,0.49
2023-01-13T21:58:49.862Z,0.23
2023-01-13T22:04:10.987Z,0.69
2023-01-13T22:09:13.862Z,0.48
2023-01-13T22:14:16.857Z,0.21
2023-01-13T22:19:19.927Z,0.25
2023-01-13T22:24:25.518Z,0.53
2023-01-13T22:29:28.480Z,-0.24
2023-01-13T22:34:31.309Z,-0.32
2023-01-13T22:39:34.542Z,-0.10
2023-01-13T22:44:37.283Z,-0.38
2023-01-13T22:49:42.281Z,-0.41
2023-01-13T22:54:45.016Z,-0.18
2023-01-13T22:59:47.884Z,0.32
2023-01-13T23:04:51.059Z,-0.12
2023-01-13T23:09:54.058Z,-0.10
2023-01-13T23:14:56.889Z,-0.40
2023-01-13T23:19:59.859Z,-0.55
2023-01-13T23:25:02.756Z,-0.83
2023-01-13T23:30:08.862Z,0.09
2023-01-13T23:35:11.660Z,-0.37
2023-01-13T23:40:15.133Z,-1.26
2023-01-13T23:45:18.122Z,-0.71
2023-01-13T23:50:21.112Z,0.20
2023-01-13T23:55:24.029Z,-0.98
